Marion, MA (02738)

9:39 PM EDT on April 28, 2017 (GMT -0400)
Marion | | Change Station

Elev 0 ft 41.71 °N, 70.77 °W | Updated 5 minutes ago

Mostly Cloudy
Mostly Cloudy
61.2 °F
Feels Like 61.2 °F
N
6.2
Wind Variable Wind from North
Gusts 14.3 mph

Today
High -- | Low -- °F
--% Chance of Precip.
Yesterday
High -- | Low -- °F
Precip. -- in
Pressure 30.01 in
Visibility 10.0 miles
Clouds Clear
Dew Point 58 °F
Humidity 88%
Rainfall 0.03 in
Snow Depth Not available.
5:43 AM 7:38 PM
Waxing Crescent, 10% visible
METAR KEWB 290053Z 22007KT 10SM CLR 16/13 A3001 RMK AO2 SLP161 T01610133
Pressure 30.01 in
Visibility 10.0 miles
Clouds Clear
Dew Point 58 °F
Humidity 88%
Rainfall 0.03 in
Snow Depth Not available.
5:43 AM 7:38 PM
Waxing Crescent, 10% visible
METAR KEWB 290053Z 22007KT 10SM CLR 16/13 A3001 RMK AO2 SLP161 T01610133

Get Severe Weather Alerts

Thanks for signing up!

Be on the lookout for a verification email in your inbox.

You'll start receiving the daily forecast at 8 AM.

×

10-Day Weather Forecast

Almanac

Astronomy

Apr. 28, 2017 Rise Set
Actual Time
Civil Twilight
Nautical Twilight
Astronomical Twilight
Moon
Length of Visible Light
Length of Day
Tomorrow will be .
, % of the Moon is Illuminated

Today's Extremes

State Highs State Lows

Community

WunderPhotos

WunderBlog® & News

Nearby

Air Quality

  Air Quality AQ Index Pollutant
Not available.

Snow Depth

Station Depth Elevation

Earthquake Activity

City Distance Mag. Time & Date
Minimum magnitude displayed is 2.5.

Coastal Water Temperatures

Place Temperature

Stations

Nearby Weather Stations

Station Location Temp. Windchill Dew Point Humidity Wind Precip. Elev Updated Type
                   

Watches & Warnings

There are currently no watches in effect.